createdAt,value
2023-12-01T00:02:09.847Z,-0.45
2023-12-01T00:07:16.416Z,-0.44
2023-12-01T00:12:22.912Z,-0.48
2023-12-01T00:17:29.489Z,-0.47
2023-12-01T00:22:35.939Z,-0.44
2023-12-01T00:27:42.481Z,-0.41
2023-12-01T00:32:49.061Z,-0.4
2023-12-01T00:38:06.671Z,-0.41
2023-12-01T00:43:13.552Z,-0.42
2023-12-01T00:48:20.030Z,-0.46
2023-12-01T00:53:26.466Z,-0.49
2023-12-01T00:58:32.876Z,-0.53
2023-12-01T01:03:39.306Z,-0.58
2023-12-01T01:08:45.770Z,-0.62
2023-12-01T01:13:52.147Z,-0.64
2023-12-01T01:18:58.601Z,-0.64
2023-12-01T01:24:05.132Z,-0.63
2023-12-01T01:29:11.638Z,-0.56
2023-12-01T01:34:18.873Z,-0.52
2023-12-01T01:39:24.937Z,-0.45
2023-12-01T01:44:31.368Z,-0.39
2023-12-01T01:49:38.026Z,-0.34
2023-12-01T01:54:45.688Z,-0.32
2023-12-01T01:59:52.015Z,-0.32
2023-12-01T02:04:58.675Z,-0.3
2023-12-01T02:10:05.255Z,-0.28
2023-12-01T02:15:11.722Z,-0.25
2023-12-01T02:20:18.192Z,-0.17
2023-12-01T02:25:25.122Z,-0.16
2023-12-01T02:30:31.764Z,-0.16
2023-12-01T02:35:38.280Z,-0.17
2023-12-01T02:40:44.763Z,-0.16
2023-12-01T02:45:51.424Z,-0.18
2023-12-01T02:50:58.267Z,-0.19
2023-12-01T02:56:04.788Z,-0.21
2023-12-01T03:01:11.290Z,-0.19
2023-12-01T03:06:17.556Z,-0.16
2023-12-01T03:11:24.005Z,-0.13
2023-12-01T03:16:30.814Z,-0.1
2023-12-01T03:21:37.301Z,-0.05
2023-12-01T03:26:43.811Z,-0.02
2023-12-01T03:31:50.318Z,0
2023-12-01T03:36:56.710Z,0.02
2023-12-01T03:42:03.311Z,0.02
2023-12-01T03:47:10.843Z,0.02
2023-12-01T03:52:17.449Z,0.02
2023-12-01T03:57:23.911Z,0.02
2023-12-01T04:02:30.493Z,0.01
2023-12-01T04:07:37.048Z,0
2023-12-01T04:12:43.809Z,0
2023-12-01T04:17:50.834Z,0.01
2023-12-01T04:22:57.172Z,0.09
2023-12-01T04:28:03.748Z,0.13
2023-12-01T04:33:10.362Z,0.2
2023-12-01T04:38:22.226Z,0.27
2023-12-01T04:43:26.745Z,0.33
2023-12-01T04:48:33.115Z,0.37
2023-12-01T04:53:39.677Z,0.42
2023-12-01T04:58:46.237Z,0.46
2023-12-01T05:03:54.616Z,0.51
2023-12-01T05:08:59.762Z,0.53
2023-12-01T05:14:06.331Z,0.55
2023-12-01T05:19:12.844Z,0.56
2023-12-01T05:24:19.393Z,0.58
2023-12-01T05:29:26.247Z,0.59
2023-12-01T05:34:32.742Z,0.61
2023-12-01T05:39:39.377Z,0.63
2023-12-01T05:44:45.924Z,0.63
2023-12-01T05:49:53.385Z,0.6
2023-12-01T05:55:00.252Z,0.59
2023-12-01T06:00:06.704Z,0.58
2023-12-01T06:05:13.053Z,0.58
2023-12-01T06:10:19.537Z,0.59
2023-12-01T06:15:26.182Z,0.59
2023-12-01T06:20:33.186Z,0.6
2023-12-01T06:25:39.495Z,0.59
2023-12-01T06:30:45.922Z,0.57
2023-12-01T06:35:52.506Z,0.57
2023-12-01T06:40:59.043Z,0.57
2023-12-01T06:46:05.785Z,0.57
2023-12-01T06:51:12.265Z,0.57
2023-12-01T06:56:18.711Z,0.58
2023-12-01T07:01:25.367Z,0.59
2023-12-01T07:06:33.000Z,0.59
2023-12-01T07:11:39.763Z,0.59
2023-12-01T07:16:46.283Z,0.6
2023-12-01T07:21:52.789Z,0.59
2023-12-01T07:26:59.308Z,0.61
2023-12-01T07:32:05.800Z,0.61
2023-12-01T07:37:12.348Z,0.62
2023-12-01T07:42:18.789Z,0.62
2023-12-01T07:47:25.378Z,0.64
2023-12-01T07:52:31.603Z,0.68
2023-12-01T07:57:38.430Z,0.7
2023-12-01T08:02:45.321Z,0.75
2023-12-01T08:07:51.890Z,0.78
2023-12-01T08:12:59.206Z,0.81
2023-12-01T08:18:04.904Z,0.81
2023-12-01T08:23:11.464Z,0.85
2023-12-01T08:28:18.141Z,0.86
2023-12-01T08:33:24.704Z,0.88
2023-12-01T08:38:31.087Z,0.91
2023-12-01T08:43:37.590Z,0.94
2023-12-01T08:48:44.807Z,0.98
2023-12-01T08:53:50.905Z,1.05
2023-12-01T08:58:57.722Z,1.11
2023-12-01T09:04:04.227Z,1.17
2023-12-01T09:09:10.694Z,1.22
2023-12-01T09:14:17.359Z,1.26
2023-12-01T09:19:24.062Z,1.33
2023-12-01T09:24:30.443Z,1.38
2023-12-01T09:29:37.244Z,1.42
2023-12-01T09:34:43.644Z,1.42
2023-12-01T09:44:57.293Z,1.52
2023-12-01T09:50:10.989Z,1.63
2023-12-01T09:55:17.605Z,1.65
2023-12-01T10:00:24.232Z,1.73
2023-12-01T10:05:30.643Z,1.82
2023-12-01T10:10:37.218Z,1.97
2023-12-01T10:15:43.633Z,2.07
2023-12-01T10:20:50.189Z,2.13
2023-12-01T10:25:56.599Z,2.22
2023-12-01T10:31:03.055Z,2.36
2023-12-01T10:36:09.558Z,2.43
2023-12-01T10:41:16.115Z,2.39
2023-12-01T10:46:22.808Z,2.52
2023-12-01T10:51:29.378Z,2.71
2023-12-01T10:56:36.041Z,3.11
2023-12-01T11:06:49.635Z,3.51
2023-12-01T11:11:58.329Z,3.21
2023-12-01T11:17:02.590Z,3.07
2023-12-01T11:22:09.012Z,2.92
2023-12-01T11:27:15.478Z,2.81
2023-12-01T11:32:21.937Z,2.62
2023-12-01T11:37:28.359Z,2.44
2023-12-01T11:42:34.794Z,2.38
2023-12-01T11:47:41.496Z,2.31
2023-12-01T11:52:48.025Z,2.28
2023-12-01T11:57:54.501Z,2.3
2023-12-01T12:03:00.910Z,2.34
2023-12-01T12:08:07.414Z,2.29
2023-12-01T12:13:13.978Z,2.16
2023-12-01T12:18:20.770Z,2.08
2023-12-01T12:23:27.193Z,2.05
2023-12-01T12:28:33.499Z,2.06
2023-12-01T12:33:40.388Z,2.06
2023-12-01T12:38:46.683Z,2.08
2023-12-01T12:43:53.053Z,2.11
2023-12-01T12:48:59.527Z,2.08
2023-12-01T12:54:06.163Z,2.07
2023-12-01T12:59:12.648Z,2.01
2023-12-01T13:04:19.120Z,1.97
2023-12-01T13:09:25.668Z,1.92
2023-12-01T13:14:32.183Z,1.89
2023-12-01T13:19:38.584Z,1.85
2023-12-01T13:24:44.941Z,1.85
2023-12-01T13:29:51.485Z,1.83
2023-12-01T13:34:57.989Z,1.77
2023-12-01T13:40:04.854Z,1.71
2023-12-01T13:45:12.335Z,1.67
2023-12-01T13:50:17.870Z,1.62
2023-12-01T13:55:24.295Z,1.58
2023-12-01T14:00:31.747Z,1.56
2023-12-01T14:05:37.625Z,1.57
2023-12-01T14:10:45.266Z,1.57
2023-12-01T14:15:50.731Z,1.51
2023-12-01T14:20:57.321Z,1.46
2023-12-01T14:26:03.715Z,1.41
2023-12-01T14:31:10.135Z,1.4
2023-12-01T14:36:16.751Z,1.39
2023-12-01T14:41:23.426Z,1.36
2023-12-01T14:46:29.695Z,1.32
2023-12-01T14:51:36.323Z,1.29
2023-12-01T14:56:42.827Z,1.29
2023-12-01T15:01:49.503Z,1.27
2023-12-01T15:06:55.732Z,1.26
2023-12-01T15:12:02.362Z,1.26
2023-12-01T15:17:08.798Z,1.23
2023-12-01T15:22:15.367Z,1.2
2023-12-01T15:27:21.788Z,1.17
2023-12-01T15:32:28.400Z,1.14
2023-12-01T15:37:34.811Z,1.12
2023-12-01T15:42:42.590Z,1.1
2023-12-01T15:47:47.577Z,1.08
2023-12-01T15:52:54.267Z,1.05
2023-12-01T15:58:00.698Z,1.02
2023-12-01T16:03:07.870Z,0.96
2023-12-01T16:08:14.301Z,0.91
2023-12-01T16:13:20.853Z,0.86
2023-12-01T16:18:28.570Z,0.84
2023-12-01T16:23:35.137Z,0.81
2023-12-01T16:28:42.087Z,0.79
2023-12-01T16:33:48.603Z,0.77
2023-12-01T16:38:55.255Z,0.74
2023-12-01T16:44:01.750Z,0.73
2023-12-01T16:49:08.315Z,0.74
2023-12-01T16:54:15.023Z,0.74
2023-12-01T16:59:21.921Z,0.74
2023-12-01T17:04:28.594Z,0.71
2023-12-01T17:09:34.881Z,0.72
2023-12-01T17:14:42.233Z,0.71
2023-12-01T17:19:48.011Z,0.73
2023-12-01T17:24:54.233Z,0.71
2023-12-01T17:30:00.783Z,0.67
2023-12-01T17:35:06.977Z,0.66
2023-12-01T17:40:13.651Z,0.63
2023-12-01T17:45:20.371Z,0.61
2023-12-01T17:50:29.985Z,0.6
2023-12-01T17:55:36.555Z,0.61
2023-12-01T18:00:43.149Z,0.58
2023-12-01T18:05:49.915Z,0.56
2023-12-01T18:10:56.476Z,0.52
2023-12-01T18:16:02.945Z,0.52
2023-12-01T18:21:09.605Z,0.51
2023-12-01T18:26:16.105Z,0.48
2023-12-01T18:31:22.869Z,0.47
2023-12-01T18:36:30.343Z,0.45
2023-12-01T18:41:37.159Z,0.44
2023-12-01T18:46:43.754Z,0.41
2023-12-01T18:51:50.085Z,0.39
2023-12-01T18:56:56.523Z,0.36
2023-12-01T19:02:06.489Z,0.35
2023-12-01T19:07:18.151Z,0.33
2023-12-01T19:12:22.508Z,0.31
2023-12-01T19:17:29.122Z,0.29
2023-12-01T19:22:35.618Z,0.27
2023-12-01T19:27:42.125Z,0.26
2023-12-01T19:32:49.424Z,0.25
2023-12-01T19:37:55.750Z,0.21
2023-12-01T19:43:02.229Z,0.19
2023-12-01T19:48:08.850Z,0.16
2023-12-01T19:53:15.303Z,0.13
2023-12-01T19:58:21.690Z,0.13
2023-12-01T20:03:28.323Z,0.12
2023-12-01T20:08:34.751Z,0.11
2023-12-01T20:13:41.198Z,0.09
2023-12-01T20:18:47.835Z,0.07
2023-12-01T20:23:54.287Z,0.03
2023-12-01T20:29:00.857Z,0.02
2023-12-01T20:34:07.461Z,-0.01
2023-12-01T20:39:13.960Z,-0.03
2023-12-01T20:44:20.448Z,-0.04
2023-12-01T20:49:27.238Z,-0.06
2023-12-01T20:54:42.360Z,-0.08
2023-12-01T20:59:49.065Z,-0.09
2023-12-01T21:04:55.701Z,-0.08
2023-12-01T21:10:02.044Z,-0.08
2023-12-01T21:15:08.701Z,-0.06
2023-12-01T21:20:15.721Z,-0.05
2023-12-01T21:25:22.265Z,-0.07
2023-12-01T21:30:29.050Z,-0.1
2023-12-01T21:35:35.596Z,-0.11
2023-12-01T21:40:42.058Z,-0.14
2023-12-01T21:45:48.513Z,-0.14
2023-12-01T21:50:55.090Z,-0.17
2023-12-01T21:56:01.559Z,-0.19
2023-12-01T22:01:08.135Z,-0.22
2023-12-01T22:06:14.663Z,-0.26
2023-12-01T22:11:21.068Z,-0.31
2023-12-01T22:16:27.502Z,-0.35
2023-12-01T22:21:33.932Z,-0.39
2023-12-01T22:26:40.577Z,-0.42
2023-12-01T22:31:57.980Z,-0.44
2023-12-01T22:37:04.703Z,-0.47
2023-12-01T22:42:22.387Z,-0.49
2023-12-01T22:47:29.041Z,-0.49
2023-12-01T22:52:35.644Z,-0.53
2023-12-01T22:57:42.173Z,-0.55
2023-12-01T23:02:48.835Z,-0.59
2023-12-01T23:07:55.464Z,-0.62
2023-12-01T23:13:02.168Z,-0.67
2023-12-01T23:18:08.906Z,-0.68
2023-12-01T23:23:15.373Z,-0.69
2023-12-01T23:28:22.148Z,-0.7
2023-12-01T23:33:28.821Z,-0.7
2023-12-01T23:38:35.236Z,-0.7
2023-12-01T23:43:41.588Z,-0.71
2023-12-01T23:48:48.187Z,-0.74
2023-12-01T23:53:54.829Z,-0.76
2023-12-01T23:59:01.197Z,-0.76
